createdAt,value
2018-10-02T00:00:58.853Z,27.80
2018-10-02T00:01:58.816Z,27.76
2018-10-02T00:02:58.935Z,27.77
2018-10-02T00:03:58.742Z,27.76
2018-10-02T00:04:58.738Z,27.77
2018-10-02T00:05:58.665Z,27.77
2018-10-02T00:06:58.653Z,27.79
2018-10-02T00:07:58.659Z,27.77
2018-10-02T00:08:58.633Z,27.79
2018-10-02T00:09:58.786Z,27.69
2018-10-02T00:10:58.512Z,27.67
2018-10-02T00:11:58.578Z,27.69
2018-10-02T00:12:58.442Z,27.62
2018-10-02T00:13:58.426Z,27.70
2018-10-02T00:14:58.509Z,27.61
2018-10-02T00:15:58.382Z,27.62
2018-10-02T00:16:58.470Z,27.62
2018-10-02T00:17:58.421Z,27.67
2018-10-02T00:18:58.331Z,27.61
2018-10-02T00:19:58.228Z,27.62
2018-10-02T00:20:58.430Z,27.64
2018-10-02T00:21:58.173Z,27.61
2018-10-02T00:22:58.176Z,27.57
2018-10-02T00:23:58.138Z,27.61
2018-10-02T00:24:58.080Z,27.62
2018-10-02T00:25:58.120Z,27.61
2018-10-02T00:26:58.047Z,27.59
2018-10-02T00:27:58.062Z,27.61
2018-10-02T00:28:58.022Z,27.59
2018-10-02T00:29:57.937Z,27.66
2018-10-02T00:30:57.946Z,27.61
2018-10-02T00:31:58.108Z,27.59
2018-10-02T00:32:57.909Z,27.53
2018-10-02T00:33:57.854Z,27.62
2018-10-02T00:34:57.878Z,27.54
2018-10-02T00:35:57.778Z,27.61
2018-10-02T00:36:57.743Z,27.61
2018-10-02T00:37:57.830Z,27.53
2018-10-02T00:38:57.743Z,27.67
2018-10-02T00:39:57.657Z,27.67
2018-10-02T00:40:57.680Z,27.62
2018-10-02T00:41:57.802Z,27.62
2018-10-02T00:42:57.585Z,27.61
2018-10-02T00:43:57.611Z,27.57
2018-10-02T00:44:57.598Z,27.57
2018-10-02T00:45:57.527Z,27.59
2018-10-02T00:46:57.586Z,27.61
2018-10-02T00:47:57.633Z,27.57
2018-10-02T00:48:57.440Z,27.47
2018-10-02T00:49:57.409Z,27.57
2018-10-02T00:50:57.515Z,27.62
2018-10-02T00:51:57.324Z,27.59
2018-10-02T00:52:57.250Z,27.53
2018-10-02T00:53:57.481Z,27.58
2018-10-02T00:54:57.285Z,27.46
2018-10-02T00:55:57.289Z,27.61
2018-10-02T00:56:57.216Z,27.50
2018-10-02T00:57:57.229Z,27.64
2018-10-02T00:58:57.379Z,27.53
2018-10-02T00:59:57.146Z,27.48
2018-10-02T01:00:57.043Z,27.53
2018-10-02T01:01:57.041Z,27.51
2018-10-02T01:02:57.026Z,27.50
2018-10-02T01:03:56.976Z,27.42
2018-10-02T01:04:56.909Z,27.42
2018-10-02T01:05:56.853Z,27.50
2018-10-02T01:06:56.947Z,27.47
2018-10-02T01:07:56.866Z,27.48
2018-10-02T01:08:56.941Z,27.46
2018-10-02T01:09:56.784Z,27.47
2018-10-02T01:10:56.770Z,27.46
2018-10-02T01:11:56.672Z,27.42
2018-10-02T01:12:56.694Z,27.50
2018-10-02T01:13:56.658Z,27.46
2018-10-02T01:14:56.872Z,27.43
2018-10-02T01:15:56.588Z,27.57
2018-10-02T01:16:56.571Z,27.51
2018-10-02T01:17:56.542Z,27.51
2018-10-02T01:18:56.548Z,27.50
2018-10-02T01:19:56.463Z,27.53
2018-10-02T01:20:56.652Z,27.61
2018-10-02T01:21:56.478Z,27.54
2018-10-02T01:22:56.382Z,27.62
2018-10-02T01:23:56.389Z,27.59
2018-10-02T01:24:56.306Z,27.50
2018-10-02T01:25:56.270Z,27.59
2018-10-02T01:26:56.634Z,27.57
2018-10-02T01:27:56.205Z,27.61
2018-10-02T01:28:56.209Z,27.50
2018-10-02T01:29:56.151Z,27.48
2018-10-02T01:30:56.113Z,27.38
2018-10-02T01:31:56.276Z,27.36
2018-10-02T01:32:56.926Z,27.20
2018-10-02T01:33:56.072Z,27.23
2018-10-02T01:34:56.075Z,27.14
2018-10-02T01:35:55.971Z,27.06
2018-10-02T01:36:55.971Z,27.10
2018-10-02T01:37:55.935Z,27.04
2018-10-02T01:38:56.143Z,26.96
2018-10-02T01:39:55.901Z,26.89
2018-10-02T01:40:55.833Z,26.94
2018-10-02T01:41:55.812Z,26.94
2018-10-02T01:42:55.787Z,27.01
2018-10-02T01:43:55.755Z,26.95
2018-10-02T01:44:55.725Z,26.98
2018-10-02T01:45:55.684Z,26.94
2018-10-02T01:46:55.669Z,26.96
2018-10-02T01:47:55.658Z,26.99
2018-10-02T01:48:55.638Z,26.95
2018-10-02T01:49:55.598Z,26.96
2018-10-02T01:50:55.544Z,27.02
2018-10-02T01:51:55.511Z,27.01
2018-10-02T01:52:55.477Z,27.01
2018-10-02T01:53:55.450Z,27.05
2018-10-02T01:54:55.411Z,27.04
2018-10-02T01:55:55.521Z,27.02
2018-10-02T01:56:55.351Z,26.99
2018-10-02T01:57:55.302Z,27.09
2018-10-02T01:58:55.282Z,27.06
2018-10-02T01:59:55.251Z,27.10
2018-10-02T02:00:55.218Z,27.11
2018-10-02T02:01:55.554Z,27.16
2018-10-02T02:02:55.177Z,27.17
2018-10-02T02:03:55.131Z,27.19
2018-10-02T02:04:55.125Z,27.19
2018-10-02T02:05:55.115Z,27.23
2018-10-02T02:06:55.058Z,27.23
2018-10-02T02:07:56.391Z,27.20
2018-10-02T02:08:54.999Z,27.26
2018-10-02T02:09:54.976Z,27.24
2018-10-02T02:10:54.934Z,27.19
2018-10-02T02:11:54.928Z,27.20
2018-10-02T02:12:54.871Z,27.14
2018-10-02T02:13:55.053Z,27.16
2018-10-02T02:14:54.847Z,27.19
2018-10-02T02:15:54.788Z,27.20
2018-10-02T02:16:54.723Z,27.19
2018-10-02T02:17:54.700Z,27.11
2018-10-02T02:18:54.820Z,27.14
2018-10-02T02:19:54.657Z,27.16
2018-10-02T02:20:54.620Z,27.17
2018-10-02T02:21:54.565Z,27.11
2018-10-02T02:22:54.549Z,27.13
2018-10-02T02:23:54.495Z,27.19
2018-10-02T02:24:54.494Z,27.17
2018-10-02T02:25:54.478Z,27.26
2018-10-02T02:26:54.401Z,27.24
2018-10-02T02:27:54.377Z,27.20
2018-10-02T02:28:54.388Z,27.16
2018-10-02T02:29:54.307Z,27.14
2018-10-02T02:30:54.272Z,27.11
2018-10-02T02:31:54.248Z,27.01
2018-10-02T02:32:54.239Z,27.02
2018-10-02T02:33:54.222Z,26.98
2018-10-02T02:34:54.173Z,26.94
2018-10-02T02:35:54.134Z,26.83
2018-10-02T02:36:54.092Z,26.84
2018-10-02T02:37:54.097Z,26.81
2018-10-02T02:38:54.103Z,26.87
2018-10-02T02:39:54.120Z,26.79
2018-10-02T02:40:53.982Z,26.76
2018-10-02T02:41:53.951Z,26.69
2018-10-02T02:42:53.933Z,26.67
2018-10-02T02:43:53.910Z,26.62
2018-10-02T02:44:53.860Z,26.58
2018-10-02T02:45:53.999Z,26.59
2018-10-02T02:46:53.805Z,26.55
2018-10-02T02:47:53.780Z,26.62
2018-10-02T02:48:53.739Z,26.67
2018-10-02T02:49:53.716Z,26.67
2018-10-02T02:50:53.678Z,26.55
2018-10-02T02:51:53.648Z,26.62
2018-10-02T02:52:53.647Z,26.42
2018-10-02T02:53:53.625Z,26.49
2018-10-02T02:54:53.569Z,26.57
2018-10-02T02:55:53.565Z,26.57
2018-10-02T02:56:53.859Z,26.49
2018-10-02T02:57:53.473Z,26.52
2018-10-02T02:58:53.437Z,26.49
2018-10-02T02:59:53.413Z,26.42
2018-10-02T03:00:53.388Z,26.40
2018-10-02T03:01:53.341Z,26.43
2018-10-02T03:02:53.423Z,26.31
2018-10-02T03:03:53.290Z,26.27
2018-10-02T03:04:53.258Z,26.37
2018-10-02T03:05:53.234Z,26.39
2018-10-02T03:06:53.196Z,26.39
2018-10-02T03:07:53.161Z,26.31
2018-10-02T03:08:53.132Z,26.40
2018-10-02T03:09:53.101Z,26.40
2018-10-02T03:10:53.090Z,26.28
2018-10-02T03:11:53.046Z,26.42
2018-10-02T03:12:53.021Z,26.36
2018-10-02T03:13:52.990Z,26.39
2018-10-02T03:14:52.953Z,26.36
2018-10-02T03:15:52.921Z,26.31
2018-10-02T03:16:52.896Z,26.31
2018-10-02T03:17:52.861Z,26.27
2018-10-02T03:18:52.831Z,26.29
2018-10-02T03:19:52.805Z,26.25
2018-10-02T03:20:52.790Z,26.27
2018-10-02T03:21:52.772Z,26.25
2018-10-02T03:22:52.710Z,26.25
2018-10-02T03:23:52.685Z,26.12
2018-10-02T03:24:52.664Z,26.17
2018-10-02T03:25:52.626Z,26.09
2018-10-02T03:26:52.602Z,26.11
2018-10-02T03:27:52.564Z,26.15
2018-10-02T03:28:52.543Z,26.12
2018-10-02T03:29:52.494Z,26.11
2018-10-02T03:30:52.466Z,26.01
2018-10-02T03:31:52.444Z,26.06
2018-10-02T03:32:52.405Z,25.98
2018-10-02T03:33:52.376Z,25.99
2018-10-02T03:34:52.600Z,25.97
2018-10-02T03:35:52.318Z,26.02
2018-10-02T03:36:52.290Z,26.06
2018-10-02T03:37:52.311Z,26.05
2018-10-02T03:38:52.224Z,26.11
2018-10-02T03:39:52.199Z,26.12
2018-10-02T03:40:52.511Z,26.08
2018-10-02T03:41:52.131Z,26.11
2018-10-02T03:42:52.111Z,26.08
2018-10-02T03:43:52.098Z,26.11
2018-10-02T03:44:52.040Z,26.11
2018-10-02T03:45:52.015Z,25.98
2018-10-02T03:46:51.976Z,26.05
2018-10-02T03:47:51.947Z,26.02
2018-10-02T03:48:51.949Z,26.02
2018-10-02T03:49:51.898Z,26.02
2018-10-02T03:50:51.863Z,25.99
2018-10-02T03:51:51.825Z,25.93
2018-10-02T03:52:51.801Z,26.01
2018-10-02T03:53:51.771Z,25.94
2018-10-02T03:54:51.737Z,25.97
2018-10-02T03:55:51.708Z,25.98
2018-10-02T03:56:51.763Z,25.97
2018-10-02T03:57:51.644Z,26.02
2018-10-02T03:58:51.620Z,26.02
2018-10-02T03:59:51.592Z,25.98
2018-10-02T04:00:51.554Z,25.97
2018-10-02T04:01:51.830Z,25.93
2018-10-02T04:02:51.498Z,25.99
2018-10-02T04:03:51.477Z,25.86
2018-10-02T04:04:51.435Z,25.90
2018-10-02T04:05:51.398Z,25.84
2018-10-02T04:06:51.374Z,25.84
2018-10-02T04:07:51.341Z,25.82
2018-10-02T04:08:51.306Z,25.89
2018-10-02T04:09:51.280Z,25.86
2018-10-02T04:10:51.249Z,25.82
2018-10-02T04:11:51.220Z,25.80
2018-10-02T04:12:51.180Z,25.79
2018-10-02T04:13:51.162Z,25.79
2018-10-02T04:14:51.131Z,25.77
2018-10-02T04:15:51.096Z,25.75
2018-10-02T04:16:51.063Z,25.68
2018-10-02T04:17:51.035Z,25.75
2018-10-02T04:18:51.006Z,25.69
2018-10-02T04:19:50.976Z,25.64
2018-10-02T04:20:50.954Z,25.65
2018-10-02T04:21:50.929Z,25.62
2018-10-02T04:22:50.886Z,25.62
2018-10-02T04:23:50.852Z,25.71
2018-10-02T04:24:50.818Z,25.65
2018-10-02T04:25:50.796Z,25.69
2018-10-02T04:26:50.769Z,25.62
2018-10-02T04:27:50.760Z,25.69
2018-10-02T04:28:50.896Z,25.64
2018-10-02T04:29:50.666Z,25.69
2018-10-02T04:30:50.633Z,25.72
2018-10-02T04:31:50.604Z,25.68
2018-10-02T04:32:50.581Z,25.71
2018-10-02T04:33:50.763Z,25.69
2018-10-02T04:34:50.513Z,25.68
2018-10-02T04:35:50.484Z,25.79
2018-10-02T04:36:50.458Z,25.72
2018-10-02T04:37:50.417Z,25.82
2018-10-02T04:38:50.395Z,25.79
2018-10-02T04:39:50.507Z,25.74
2018-10-02T04:40:50.334Z,25.75
2018-10-02T04:41:50.319Z,25.82
2018-10-02T04:42:50.268Z,25.69
2018-10-02T04:43:50.242Z,25.77
2018-10-02T04:44:50.207Z,25.75
2018-10-02T04:45:50.180Z,25.68
2018-10-02T04:46:50.193Z,25.77
2018-10-02T04:47:50.121Z,25.77
2018-10-02T04:48:50.088Z,25.79
2018-10-02T04:49:50.052Z,25.75
2018-10-02T04:50:50.027Z,25.75
2018-10-02T04:51:49.993Z,25.80
2018-10-02T04:52:49.958Z,25.74
2018-10-02T04:53:49.964Z,25.74
2018-10-02T04:54:49.905Z,25.75
2018-10-02T04:55:49.918Z,25.80
2018-10-02T04:56:49.836Z,25.79
2018-10-02T04:57:49.814Z,25.79
2018-10-02T04:58:49.781Z,25.79
2018-10-02T04:59:49.747Z,25.83
2018-10-02T05:00:49.725Z,25.89
2018-10-02T05:01:49.688Z,25.83
2018-10-02T05:02:49.662Z,25.83
2018-10-02T05:03:49.652Z,25.83
2018-10-02T05:04:49.600Z,25.84
2018-10-02T05:05:49.762Z,25.86
2018-10-02T05:06:49.530Z,25.86
2018-10-02T05:07:49.507Z,25.86
2018-10-02T05:08:49.564Z,25.98
2018-10-02T05:09:49.461Z,25.99
2018-10-02T05:10:49.410Z,25.99
2018-10-02T05:11:49.729Z,25.97
2018-10-02T05:12:49.366Z,25.97
2018-10-02T05:13:49.320Z,25.94
2018-10-02T05:14:49.290Z,25.98
2018-10-02T05:15:49.261Z,25.99
2018-10-02T05:16:49.241Z,26.01
2018-10-02T05:17:49.553Z,25.98
2018-10-02T05:18:49.171Z,25.86
2018-10-02T05:19:49.137Z,25.87
2018-10-02T05:20:49.185Z,25.90
2018-10-02T05:21:49.078Z,25.89
2018-10-02T05:22:49.048Z,25.86
2018-10-02T05:23:49.017Z,25.87
2018-10-02T05:24:48.977Z,25.89
2018-10-02T05:25:48.969Z,25.80
2018-10-02T05:26:48.927Z,25.86
2018-10-02T05:27:48.918Z,25.83
2018-10-02T05:28:48.856Z,25.89
2018-10-02T05:29:48.833Z,25.82
2018-10-02T05:30:48.797Z,25.82
2018-10-02T05:31:48.765Z,25.77
2018-10-02T05:32:48.759Z,25.74
2018-10-02T05:33:48.709Z,25.84
2018-10-02T05:34:48.692Z,25.80
2018-10-02T05:35:48.652Z,25.75
2018-10-02T05:36:48.616Z,25.80
2018-10-02T05:37:48.585Z,25.84
2018-10-02T05:38:48.804Z,25.71
2018-10-02T05:39:48.533Z,25.75
2018-10-02T05:40:48.490Z,25.75
2018-10-02T05:41:48.465Z,25.77
2018-10-02T05:42:48.499Z,25.80
2018-10-02T05:43:48.403Z,25.74
2018-10-02T05:44:48.465Z,25.80
2018-10-02T05:45:48.341Z,25.80
2018-10-02T05:46:48.307Z,25.62
2018-10-02T05:47:48.280Z,25.69
2018-10-02T05:48:48.242Z,25.71
2018-10-02T05:49:48.212Z,25.67
2018-10-02T05:50:48.187Z,25.69
2018-10-02T05:51:48.163Z,25.65
2018-10-02T05:52:48.123Z,25.67
2018-10-02T05:53:48.093Z,25.68
2018-10-02T05:54:48.122Z,25.68
2018-10-02T05:55:48.058Z,25.64
2018-10-02T05:56:48.241Z,25.67
2018-10-02T05:57:47.977Z,25.65
2018-10-02T05:58:47.940Z,25.64
2018-10-02T05:59:47.923Z,25.61
2018-10-02T06:00:47.884Z,25.54
2018-10-02T06:01:47.852Z,25.57
2018-10-02T06:02:47.826Z,25.62
2018-10-02T06:03:47.844Z,25.67
2018-10-02T06:04:47.767Z,25.65
2018-10-02T06:05:47.728Z,25.65
2018-10-02T06:06:47.711Z,25.61
2018-10-02T06:07:47.667Z,25.59
2018-10-02T06:08:47.632Z,25.62
2018-10-02T06:09:47.635Z,25.47
2018-10-02T06:10:47.726Z,25.52
2018-10-02T06:11:47.547Z,25.53
2018-10-02T06:12:47.516Z,25.50
2018-10-02T06:13:47.482Z,25.50
2018-10-02T06:14:47.450Z,25.42
2018-10-02T06:15:47.425Z,25.43
2018-10-02T06:16:47.606Z,25.38
2018-10-02T06:17:47.364Z,25.39
2018-10-02T06:18:47.370Z,25.37
2018-10-02T06:19:47.299Z,25.44
2018-10-02T06:20:47.273Z,25.42
2018-10-02T06:21:47.235Z,25.44
2018-10-02T06:22:47.398Z,25.43
2018-10-02T06:23:47.174Z,25.46
2018-10-02T06:24:47.200Z,25.42
2018-10-02T06:25:47.113Z,25.44
2018-10-02T06:26:47.073Z,25.43
2018-10-02T06:27:47.046Z,25.34
2018-10-02T06:28:47.027Z,25.44
2018-10-02T06:29:46.985Z,25.38
2018-10-02T06:30:46.957Z,25.38
2018-10-02T06:31:46.923Z,25.27
2018-10-02T06:32:46.963Z,25.30
2018-10-02T06:33:46.872Z,25.27
2018-10-02T06:34:46.833Z,25.32
2018-10-02T06:35:46.796Z,25.31
2018-10-02T06:36:46.772Z,25.34
2018-10-02T06:37:46.745Z,25.42
2018-10-02T06:38:46.736Z,25.39
2018-10-02T06:39:46.679Z,25.46
2018-10-02T06:40:46.658Z,25.42
2018-10-02T06:41:46.619Z,25.42
2018-10-02T06:42:46.607Z,25.46
2018-10-02T06:43:47.086Z,25.39
2018-10-02T06:44:46.569Z,25.43
2018-10-02T06:45:46.497Z,25.46
2018-10-02T06:46:46.466Z,25.39
2018-10-02T06:47:46.443Z,25.39
2018-10-02T06:48:46.414Z,25.47
2018-10-02T06:50:46.348Z,25.50
2018-10-02T06:51:46.327Z,25.43
2018-10-02T06:52:46.483Z,25.44
2018-10-02T06:53:46.294Z,25.43
2018-10-02T06:54:46.226Z,25.44
2018-10-02T06:55:46.189Z,25.43
2018-10-02T06:56:46.217Z,25.39
2018-10-02T06:57:46.181Z,25.42
2018-10-02T06:58:46.092Z,25.32
2018-10-02T06:59:46.062Z,25.28
2018-10-02T07:00:46.042Z,25.30
2018-10-02T07:01:46.009Z,25.34
2018-10-02T07:02:45.981Z,25.31
2018-10-02T07:03:45.954Z,25.31
2018-10-02T07:04:45.912Z,25.32
2018-10-02T07:05:45.878Z,25.37
2018-10-02T07:06:45.898Z,25.32
2018-10-02T07:07:45.853Z,25.28
2018-10-02T07:08:45.835Z,25.30
2018-10-02T07:09:45.793Z,25.31
2018-10-02T07:10:45.726Z,25.32
2018-10-02T07:11:45.689Z,25.25
2018-10-02T07:12:45.708Z,25.17
2018-10-02T07:13:45.631Z,25.28
2018-10-02T07:14:45.640Z,25.17
2018-10-02T07:15:45.851Z,25.16
2018-10-02T07:16:45.549Z,25.27
2018-10-02T07:17:45.519Z,25.22
2018-10-02T07:18:45.478Z,25.19
2018-10-02T07:19:45.451Z,25.20
2018-10-02T07:20:45.498Z,25.24
2018-10-02T07:21:45.489Z,25.24
2018-10-02T07:22:45.356Z,25.30
2018-10-02T07:23:45.327Z,25.20
2018-10-02T07:24:45.300Z,25.31
2018-10-02T07:25:45.277Z,25.31
2018-10-02T07:26:45.267Z,25.32
2018-10-02T07:27:45.385Z,25.31
2018-10-02T07:28:45.172Z,25.37
2018-10-02T07:29:45.152Z,25.27
2018-10-02T07:30:45.160Z,25.28
2018-10-02T07:31:45.076Z,25.35
2018-10-02T07:32:45.163Z,25.32
2018-10-02T07:33:45.046Z,25.30
2018-10-02T07:34:44.984Z,25.28
2018-10-02T07:35:44.954Z,25.32
2018-10-02T07:36:44.948Z,25.28
2018-10-02T07:37:44.896Z,25.37
2018-10-02T07:38:44.969Z,25.39
2018-10-02T07:39:44.840Z,25.38
2018-10-02T07:40:44.801Z,25.28
2018-10-02T07:41:44.807Z,25.35
2018-10-02T07:42:44.753Z,25.28
2018-10-02T07:43:44.712Z,25.34
2018-10-02T07:44:44.701Z,25.30
2018-10-02T07:45:44.649Z,25.30
2018-10-02T07:46:44.617Z,25.34
2018-10-02T07:47:44.898Z,25.31
2018-10-02T07:48:44.549Z,25.32
2018-10-02T07:49:44.530Z,25.31
2018-10-02T07:50:44.647Z,25.31
2018-10-02T07:51:44.461Z,25.30
2018-10-02T07:52:44.431Z,25.34
2018-10-02T07:53:44.735Z,25.30
2018-10-02T07:54:44.372Z,25.27
2018-10-02T07:55:44.338Z,25.34
2018-10-02T07:56:44.373Z,25.25
2018-10-02T07:57:44.286Z,25.20
2018-10-02T07:58:44.242Z,25.24
2018-10-02T07:59:44.232Z,25.25
2018-10-02T08:00:44.179Z,25.15
2018-10-02T08:01:44.153Z,25.22
2018-10-02T08:02:44.167Z,25.17
2018-10-02T08:03:44.097Z,25.25
2018-10-02T08:04:44.104Z,25.22
2018-10-02T08:05:44.063Z,25.20
2018-10-02T08:06:43.993Z,25.24
2018-10-02T08:07:43.974Z,25.17
2018-10-02T08:08:43.941Z,25.24
2018-10-02T08:09:43.905Z,25.25
2018-10-02T08:10:43.873Z,25.19
2018-10-02T08:11:43.945Z,25.09
2018-10-02T08:12:43.801Z,25.12
2018-10-02T08:13:43.785Z,25.19
2018-10-02T08:14:43.842Z,25.16
2018-10-02T08:15:43.710Z,25.15
2018-10-02T08:16:43.690Z,25.16
2018-10-02T08:17:43.652Z,25.19
2018-10-02T08:18:43.624Z,25.12
2018-10-02T08:19:43.592Z,25.13
2018-10-02T08:20:43.770Z,25.10
2018-10-02T08:21:43.532Z,25.13
2018-10-02T08:22:43.532Z,25.07
2018-10-02T08:23:43.560Z,25.15
2018-10-02T08:24:43.445Z,25.15
2018-10-02T08:25:43.416Z,25.12
2018-10-02T08:26:43.642Z,25.13
2018-10-02T08:27:43.343Z,25.15
2018-10-02T08:28:43.384Z,25.07
2018-10-02T08:29:43.328Z,25.13
2018-10-02T08:30:43.250Z,25.10
2018-10-02T08:31:43.223Z,25.13
2018-10-02T08:32:43.269Z,25.22
2018-10-02T08:33:43.162Z,25.17
2018-10-02T08:34:43.134Z,25.13
2018-10-02T08:35:43.123Z,25.17
2018-10-02T08:36:43.074Z,25.20
2018-10-02T08:37:43.046Z,25.27
2018-10-02T08:38:43.068Z,25.15
2018-10-02T08:39:42.974Z,25.13
2018-10-02T08:40:42.949Z,25.20
2018-10-02T08:41:42.974Z,25.20
2018-10-02T08:42:42.893Z,25.20
2018-10-02T08:43:42.988Z,25.22
2018-10-02T08:44:42.911Z,25.20
2018-10-02T08:45:42.801Z,25.19
2018-10-02T08:46:42.756Z,25.17
2018-10-02T08:47:42.770Z,25.22
2018-10-02T08:48:42.698Z,25.17
2018-10-02T08:49:42.661Z,25.13
2018-10-02T08:50:42.702Z,25.19
2018-10-02T08:51:42.633Z,25.13
2018-10-02T08:52:42.565Z,25.16
2018-10-02T08:53:42.627Z,25.12
2018-10-02T08:54:42.531Z,25.16
2018-10-02T08:55:42.481Z,25.10
2018-10-02T08:56:42.449Z,25.13
2018-10-02T08:57:42.413Z,25.05
2018-10-02T08:58:42.391Z,25.09
2018-10-02T08:59:42.363Z,25.05
2018-10-02T09:00:42.348Z,25.05
2018-10-02T09:01:42.288Z,25.05
2018-10-02T09:02:42.462Z,25.15
2018-10-02T09:03:42.238Z,25.16
2018-10-02T09:04:42.199Z,25.15
2018-10-02T09:05:42.167Z,25.10
2018-10-02T09:06:42.222Z,25.13
2018-10-02T09:07:42.103Z,25.12
2018-10-02T09:08:42.079Z,25.17
2018-10-02T09:09:42.070Z,25.19
2018-10-02T09:10:42.055Z,25.16
2018-10-02T09:11:41.984Z,25.16
2018-10-02T09:12:42.126Z,25.15
2018-10-02T09:13:42.201Z,25.17
2018-10-02T09:14:41.928Z,25.12
2018-10-02T09:15:41.948Z,25.16
2018-10-02T09:16:41.974Z,25.07
2018-10-02T09:17:41.794Z,25.17
2018-10-02T09:18:41.856Z,25.19
2018-10-02T09:19:41.727Z,25.27
2018-10-02T09:20:41.710Z,25.25
2018-10-02T09:21:41.699Z,25.22
2018-10-02T09:22:41.694Z,25.30
2018-10-02T09:23:41.653Z,25.24
2018-10-02T09:24:41.676Z,25.32
2018-10-02T09:25:41.546Z,25.28
2018-10-02T09:26:41.512Z,25.37
2018-10-02T09:27:41.566Z,25.28
2018-10-02T09:28:41.485Z,25.34
2018-10-02T09:29:41.411Z,25.43
2018-10-02T09:30:41.461Z,25.39
2018-10-02T09:31:41.371Z,25.43
2018-10-02T09:32:41.322Z,25.47
2018-10-02T09:33:41.332Z,25.53
2018-10-02T09:34:41.272Z,25.49
2018-10-02T09:35:41.429Z,25.56
2018-10-02T09:36:41.226Z,25.49
2018-10-02T09:37:41.172Z,25.57
2018-10-02T09:38:41.137Z,25.54
2018-10-02T09:39:41.224Z,25.59
2018-10-02T09:40:41.081Z,25.49
2018-10-02T09:41:41.072Z,25.61
2018-10-02T09:42:41.080Z,25.57
2018-10-02T09:43:41.041Z,25.62
2018-10-02T09:44:40.967Z,25.59
2018-10-02T09:45:41.017Z,25.64
2018-10-02T09:46:40.887Z,25.69
2018-10-02T09:47:40.858Z,25.74
2018-10-02T09:48:40.863Z,25.74
2018-10-02T09:49:40.827Z,25.75
2018-10-02T09:50:40.858Z,25.83
2018-10-02T09:51:40.776Z,25.87
2018-10-02T09:52:40.707Z,25.98
2018-10-02T09:53:40.680Z,25.97
2018-10-02T09:54:40.665Z,25.98
2018-10-02T09:55:40.616Z,25.98
2018-10-02T09:56:40.707Z,26.04
2018-10-02T09:57:40.597Z,26.20
2018-10-02T09:58:40.610Z,26.08
2018-10-02T09:59:40.527Z,26.15
2018-10-02T10:00:40.552Z,26.09
2018-10-02T10:01:40.428Z,26.24
2018-10-02T10:02:40.443Z,26.24
2018-10-02T10:03:40.407Z,26.25
2018-10-02T10:04:40.331Z,26.22
2018-10-02T10:05:40.303Z,26.22
2018-10-02T10:06:40.271Z,26.27
2018-10-02T10:07:40.508Z,26.29
2018-10-02T10:08:40.211Z,26.24
2018-10-02T10:09:40.216Z,26.32
2018-10-02T10:10:40.248Z,26.32
2018-10-02T10:11:40.156Z,26.29
2018-10-02T10:12:40.085Z,26.40
2018-10-02T10:13:40.063Z,26.35
2018-10-02T10:14:40.062Z,26.35
2018-10-02T10:15:40.065Z,26.32
2018-10-02T10:16:40.053Z,26.28
2018-10-02T10:17:39.938Z,26.39
2018-10-02T10:18:39.934Z,26.39
2018-10-02T10:19:39.867Z,26.31
2018-10-02T10:20:39.845Z,26.36
2018-10-02T10:21:39.835Z,26.32
2018-10-02T10:22:39.841Z,26.39
2018-10-02T10:23:39.740Z,26.32
2018-10-02T10:24:39.711Z,26.35
2018-10-02T10:25:39.685Z,26.27
2018-10-02T10:26:39.715Z,26.36
2018-10-02T10:27:39.649Z,26.35
2018-10-02T10:28:39.828Z,26.31
2018-10-02T10:29:39.584Z,26.36
2018-10-02T10:30:39.544Z,26.32
2018-10-02T10:31:39.514Z,26.31
2018-10-02T10:32:39.467Z,26.37
2018-10-02T10:33:39.606Z,26.39
2018-10-02T10:34:39.948Z,26.39
2018-10-02T10:35:39.374Z,26.40
2018-10-02T10:36:39.364Z,26.37
2018-10-02T10:37:39.365Z,26.43
2018-10-02T10:38:39.325Z,26.29
2018-10-02T10:39:39.278Z,26.35
2018-10-02T10:40:39.598Z,26.35
2018-10-02T10:41:39.225Z,26.39
2018-10-02T10:42:39.163Z,26.42
2018-10-02T10:43:39.137Z,26.44
2018-10-02T10:44:39.107Z,26.40
2018-10-02T10:45:39.106Z,26.47
2018-10-02T10:46:39.165Z,26.50
2018-10-02T10:47:39.093Z,26.59
2018-10-02T10:48:39.032Z,26.62
2018-10-02T10:49:38.943Z,26.58
2018-10-02T10:50:38.919Z,26.64
2018-10-02T10:52:38.895Z,26.64
2018-10-02T10:53:38.823Z,26.64
2018-10-02T10:54:38.801Z,26.73
2018-10-02T10:55:38.757Z,26.77
2018-10-02T10:56:38.728Z,26.84
2018-10-02T10:57:38.916Z,26.81
2018-10-02T10:58:38.712Z,26.84
2018-10-02T10:59:38.647Z,26.87
2018-10-02T11:00:38.603Z,26.89
2018-10-02T11:01:38.799Z,26.96
2018-10-02T11:02:38.546Z,27.05
2018-10-02T11:03:38.517Z,27.16
2018-10-02T11:04:38.547Z,27.19
2018-10-02T11:05:38.458Z,27.24
2018-10-02T11:06:38.419Z,27.26
2018-10-02T11:07:39.148Z,27.35
2018-10-02T11:08:38.376Z,27.46
2018-10-02T11:09:38.337Z,27.47
2018-10-02T11:10:38.307Z,27.53
2018-10-02T11:11:38.269Z,27.64
2018-10-02T11:12:38.241Z,27.62
2018-10-02T11:13:38.420Z,27.54
2018-10-02T11:14:38.189Z,27.74
2018-10-02T11:15:38.153Z,27.74
2018-10-02T11:16:38.139Z,27.82
2018-10-02T11:17:38.090Z,27.88
2018-10-02T11:18:38.056Z,27.96
2018-10-02T11:19:38.126Z,27.96
2018-10-02T11:20:38.020Z,27.96
2018-10-02T11:21:37.974Z,27.99
2018-10-02T11:22:37.936Z,28.04
2018-10-02T11:23:37.911Z,28.17
2018-10-02T11:24:38.024Z,28.13
2018-10-02T11:25:37.855Z,28.16
2018-10-02T11:26:37.824Z,28.28
2018-10-02T11:27:37.789Z,28.23
2018-10-02T11:28:37.769Z,28.32
2018-10-02T11:29:37.738Z,28.23
2018-10-02T11:30:37.848Z,28.38
2018-10-02T11:31:37.671Z,28.36
2018-10-02T11:32:37.639Z,28.40
2018-10-02T11:33:37.608Z,28.44
2018-10-02T11:34:37.590Z,28.46
2018-10-02T11:35:37.650Z,28.51
2018-10-02T11:36:37.667Z,28.62
2018-10-02T11:37:37.506Z,28.56
2018-10-02T11:38:37.456Z,28.62
2018-10-02T11:39:37.455Z,28.60
2018-10-02T11:40:37.406Z,28.70
2018-10-02T11:41:37.367Z,28.72
2018-10-02T11:42:37.340Z,28.68
2018-10-02T11:43:37.369Z,28.72
2018-10-02T11:44:37.321Z,28.81
2018-10-02T11:45:37.249Z,28.90
2018-10-02T11:46:37.219Z,28.96
2018-10-02T11:47:37.189Z,29.01
2018-10-02T11:48:37.160Z,29.23
2018-10-02T11:49:37.136Z,29.41
2018-10-02T11:50:37.094Z,29.47
2018-10-02T11:51:37.062Z,29.55
2018-10-02T11:52:37.036Z,29.70
2018-10-02T11:53:37.029Z,29.77
2018-10-02T11:54:36.974Z,29.87
2018-10-02T11:55:36.991Z,30.03
2018-10-02T11:56:37.079Z,30.07
2018-10-02T11:57:37.037Z,30.19
2018-10-02T11:58:36.866Z,30.24
2018-10-02T11:59:36.831Z,30.34
2018-10-02T12:00:36.832Z,30.59
2018-10-02T12:01:36.774Z,30.65
2018-10-02T12:02:36.964Z,30.99
2018-10-02T12:03:36.727Z,31.45
2018-10-02T12:04:36.691Z,31.95
2018-10-02T12:05:36.647Z,32.47
2018-10-02T12:06:36.669Z,32.73
2018-10-02T12:07:36.602Z,33.17
2018-10-02T12:08:36.817Z,33.57
2018-10-02T12:09:36.543Z,34.00
2018-10-02T12:10:36.504Z,34.23
2018-10-02T12:11:36.501Z,34.58
2018-10-02T12:12:36.445Z,34.76
2018-10-02T12:13:36.574Z,34.94
2018-10-02T12:14:36.747Z,35.20
2018-10-02T12:15:36.364Z,35.60
2018-10-02T12:16:36.344Z,35.95
2018-10-02T12:17:36.322Z,36.29
2018-10-02T12:18:36.288Z,36.51
2018-10-02T12:19:36.308Z,36.94
2018-10-02T12:20:36.231Z,37.28
2018-10-02T12:21:36.215Z,37.47
2018-10-02T12:22:36.182Z,37.68
2018-10-02T12:23:36.177Z,37.66
2018-10-02T12:24:36.129Z,37.58
2018-10-02T12:25:36.101Z,37.56
2018-10-02T12:26:36.067Z,37.58
2018-10-02T12:27:36.055Z,37.81
2018-10-02T12:28:36.051Z,37.78
2018-10-02T12:29:36.010Z,37.78
2018-10-02T12:30:36.093Z,37.78
2018-10-02T12:31:35.938Z,37.77
2018-10-02T12:32:35.926Z,37.67
2018-10-02T12:33:35.897Z,37.59
2018-10-02T12:34:35.874Z,37.80
2018-10-02T12:35:35.853Z,38.18
2018-10-02T12:36:35.820Z,38.61
2018-10-02T12:37:35.801Z,38.60
2018-10-02T12:38:35.779Z,38.49
2018-10-02T12:39:35.747Z,38.38
2018-10-02T12:40:35.722Z,38.61
2018-10-02T12:41:35.714Z,38.66
2018-10-02T12:42:35.684Z,38.96
2018-10-02T12:43:35.654Z,39.22
2018-10-02T12:44:35.851Z,39.30
2018-10-02T12:45:35.626Z,39.69
2018-10-02T12:46:35.585Z,39.81
2018-10-02T12:47:35.574Z,39.76
2018-10-02T12:48:35.541Z,39.71
2018-10-02T12:49:35.519Z,39.36
2018-10-02T12:50:35.515Z,39.06
2018-10-02T12:52:35.503Z,39.37
2018-10-02T12:53:35.432Z,39.10
2018-10-02T12:54:35.410Z,39.21
2018-10-02T12:55:35.419Z,39.01